createdAt,value
2023-05-12T00:03:55.258Z,4.80
2023-05-12T00:16:00.334Z,4.35
2023-05-12T00:22:03.219Z,5.28
2023-05-12T00:28:05.833Z,5.32
2023-05-12T00:34:08.140Z,5.18
2023-05-12T00:40:10.577Z,5.50
2023-05-12T00:46:13.005Z,6.13
2023-05-12T00:52:15.336Z,6.03
2023-05-12T00:58:17.527Z,6.28
2023-05-12T01:04:19.860Z,6.85
2023-05-12T01:16:32.568Z,7.77
2023-05-12T01:22:36.235Z,8.95
2023-05-12T01:28:41.440Z,9.60
2023-05-12T01:34:44.578Z,8.07
2023-05-12T01:40:47.429Z,9.02
2023-05-12T01:46:50.922Z,8.63
2023-05-12T01:52:53.282Z,8.93
2023-05-12T01:58:56.155Z,7.95
2023-05-12T02:04:58.639Z,7.90
2023-05-12T02:11:08.293Z,7.97
2023-05-12T02:17:11.140Z,8.45
2023-05-12T02:29:15.933Z,8.30
2023-05-12T02:35:18.464Z,7.60
2023-05-12T02:41:20.713Z,7.78
2023-05-12T02:47:23.238Z,8.85
2023-05-12T02:53:27.343Z,8.48
2023-05-12T02:59:30.868Z,8.27
2023-05-12T03:05:33.228Z,8.35
2023-05-12T03:11:35.784Z,9.02
2023-05-12T03:17:38.524Z,10.30
2023-05-12T03:23:41.325Z,8.52
2023-05-12T03:29:43.582Z,8.57
2023-05-12T03:35:46.239Z,8.25
2023-05-12T03:41:48.667Z,8.98
2023-05-12T03:47:50.945Z,9.32
2023-05-12T03:53:53.376Z,9.75
2023-05-12T03:59:55.985Z,9.27
2023-05-12T04:12:04.152Z,9.13
2023-05-12T04:18:06.532Z,10.05
2023-05-12T04:24:09.087Z,9.18
2023-05-12T04:30:13.569Z,8.13
2023-05-12T04:36:18.232Z,9.20
2023-05-12T04:42:21.034Z,10.10
2023-05-12T04:54:25.911Z,10.10
2023-05-12T05:06:32.186Z,10.50
2023-05-12T05:12:36.041Z,9.63
2023-05-12T05:18:38.695Z,10.02
2023-05-12T05:30:43.325Z,9.00
2023-05-12T05:36:46.653Z,9.32
2023-05-12T05:42:49.129Z,10.30
2023-05-12T05:48:51.662Z,7.85
2023-05-12T05:54:54.750Z,7.25
2023-05-12T06:01:00.593Z,8.55
2023-05-12T06:07:03.055Z,7.93
2023-05-12T06:13:05.417Z,7.88
2023-05-12T06:25:11.625Z,6.15
2023-05-12T06:31:13.938Z,6.95
2023-05-12T06:37:16.297Z,5.55
2023-05-12T06:43:18.528Z,6.30
2023-05-12T06:55:24.286Z,5.82
2023-05-12T07:01:30.415Z,17.52
2023-05-12T07:07:32.709Z,4.72
2023-05-12T07:13:35.283Z,5.40
2023-05-12T07:19:40.091Z,5.47
2023-05-12T07:25:42.479Z,4.95
2023-05-12T07:31:44.883Z,3.92
2023-05-12T07:37:47.136Z,4.00
2023-05-12T07:43:49.228Z,5.28
2023-05-12T07:49:51.487Z,5.18
2023-05-12T07:55:53.759Z,4.90
2023-05-12T08:01:55.940Z,3.70
2023-05-12T08:07:58.292Z,2.72
2023-05-12T08:14:01.066Z,4.00
2023-05-12T08:26:09.460Z,3.88
2023-05-12T08:32:12.212Z,3.50
2023-05-12T08:38:14.430Z,3.70
2023-05-12T08:44:18.925Z,3.17
2023-05-12T08:50:23.221Z,3.10
2023-05-12T09:02:44.761Z,3.20
2023-05-12T09:08:51.677Z,4.00
2023-05-12T09:15:05.545Z,5.65
2023-05-12T09:21:07.931Z,3.38
2023-05-12T09:27:11.155Z,3.35
2023-05-12T09:33:14.350Z,3.70
2023-05-12T09:39:18.368Z,3.92
2023-05-12T09:45:21.255Z,4.35
2023-05-12T09:51:24.703Z,3.35
2023-05-12T09:57:27.687Z,3.53
2023-05-12T10:03:31.145Z,3.38
2023-05-12T10:09:35.532Z,4.57
2023-05-12T10:15:38.088Z,3.58
2023-05-12T10:27:44.789Z,3.45
2023-05-12T10:34:00.253Z,3.00
2023-05-12T10:40:05.316Z,2.67
2023-05-12T10:46:13.216Z,2.67
2023-05-12T10:52:20.664Z,2.72
2023-05-12T10:58:23.106Z,2.80
2023-05-12T11:16:47.162Z,2.63
2023-05-12T11:22:49.601Z,2.28
2023-05-12T11:28:51.864Z,2.55
2023-05-12T11:34:54.175Z,2.38
2023-05-12T11:40:56.536Z,2.55
2023-05-12T11:47:12.849Z,2.22
2023-05-12T11:53:19.063Z,2.92
2023-05-12T11:59:33.125Z,2.83
2023-05-12T12:05:35.629Z,2.65
2023-05-12T12:11:37.809Z,3.00
2023-05-12T12:17:40.846Z,4.07
2023-05-12T12:23:50.987Z,2.47
2023-05-12T12:29:54.340Z,2.42
2023-05-12T12:41:59.299Z,2.53
2023-05-12T12:48:01.725Z,2.67
2023-05-12T12:54:04.069Z,2.45
2023-05-12T13:00:08.971Z,3.33
2023-05-12T13:06:11.379Z,2.67
2023-05-12T13:12:13.813Z,2.45
2023-05-12T13:24:18.808Z,2.67
2023-05-12T13:36:25.278Z,2.80
2023-05-12T13:42:27.731Z,3.10
2023-05-12T13:48:29.914Z,2.83
2023-05-12T13:54:32.329Z,3.30
2023-05-12T14:00:34.598Z,2.65
2023-05-12T14:06:36.771Z,3.17
2023-05-12T14:12:39.349Z,2.55
2023-05-12T14:18:43.475Z,2.15
2023-05-12T14:24:46.388Z,2.63
2023-05-12T14:30:49.495Z,3.10
2023-05-12T14:36:51.676Z,2.45
2023-05-12T14:42:54.484Z,3.03
2023-05-12T14:48:56.694Z,2.40
2023-05-12T14:54:58.938Z,2.55
2023-05-12T15:01:02.951Z,2.70
2023-05-12T15:07:06.381Z,2.55
2023-05-12T15:13:08.559Z,3.65
2023-05-12T15:19:10.867Z,2.92
2023-05-12T15:25:13.362Z,2.40
2023-05-12T15:31:16.013Z,2.75
2023-05-12T15:43:20.709Z,2.83
2023-05-12T15:49:22.830Z,2.50
2023-05-12T15:55:25.118Z,3.30
2023-05-12T16:01:27.573Z,2.20
2023-05-12T16:07:31.443Z,2.22
2023-05-12T16:13:33.696Z,2.45
2023-05-12T16:19:36.275Z,2.75
2023-05-12T16:25:38.706Z,2.25
2023-05-12T16:31:41.151Z,3.15
2023-05-12T16:37:43.625Z,2.55
2023-05-12T16:43:46.710Z,2.83
2023-05-12T16:49:55.350Z,2.20
2023-05-12T16:55:58.352Z,3.67
2023-05-12T17:02:00.695Z,4.13
2023-05-12T17:08:03.014Z,3.75
2023-05-12T17:14:05.185Z,3.13
2023-05-12T17:20:08.288Z,3.30
2023-05-12T17:26:10.953Z,4.15
2023-05-12T17:38:17.187Z,4.57
2023-05-12T17:44:19.427Z,4.03
2023-05-12T17:50:21.938Z,5.50
2023-05-12T17:56:24.973Z,5.47
2023-05-12T18:02:27.152Z,5.32
2023-05-12T18:08:29.363Z,3.97
2023-05-12T18:14:31.409Z,5.97
2023-05-12T18:20:33.855Z,6.10
2023-05-12T18:26:36.490Z,5.53
2023-05-12T18:32:38.871Z,4.93
2023-05-12T18:38:41.289Z,5.65
2023-05-12T18:44:43.601Z,5.63
2023-05-12T18:50:45.935Z,5.13
2023-05-12T18:56:48.401Z,5.05
2023-05-12T19:02:50.675Z,4.75
2023-05-12T19:08:52.769Z,3.95
2023-05-12T19:14:54.915Z,4.03
2023-05-12T19:20:57.144Z,3.50
2023-05-12T19:26:59.853Z,3.70
2023-05-12T19:39:04.883Z,4.43
2023-05-12T19:45:07.404Z,3.65
2023-05-12T19:51:09.823Z,3.38
2023-05-12T19:57:12.028Z,3.35
2023-05-12T20:03:14.687Z,3.00
2023-05-12T20:15:19.294Z,2.75
2023-05-12T20:21:21.915Z,3.47
2023-05-12T20:27:24.150Z,2.75
2023-05-12T20:33:27.045Z,3.38
2023-05-12T20:39:29.280Z,3.30
2023-05-12T20:45:31.525Z,3.08
2023-05-12T20:51:33.773Z,3.08
2023-05-12T20:57:36.198Z,2.72
2023-05-12T21:03:38.495Z,2.65
2023-05-12T21:09:40.820Z,3.30
2023-05-12T21:15:43.161Z,4.10
2023-05-12T21:21:45.497Z,4.53
2023-05-12T21:27:48.281Z,4.20
2023-05-12T21:33:50.808Z,3.28
2023-05-12T21:39:53.035Z,3.35
2023-05-12T21:45:55.384Z,3.60
2023-05-12T21:51:57.768Z,2.92
2023-05-12T21:57:59.895Z,3.38
2023-05-12T22:04:02.403Z,4.77
2023-05-12T22:10:05.958Z,3.22
2023-05-12T22:16:08.372Z,3.67
2023-05-12T22:22:10.724Z,3.40
2023-05-12T22:28:13.021Z,3.00
2023-05-12T22:34:15.510Z,3.67
2023-05-12T22:40:17.641Z,3.75
2023-05-12T22:46:20.116Z,3.17
2023-05-12T22:52:22.374Z,3.25
2023-05-12T22:58:24.511Z,3.53
2023-05-12T23:04:26.819Z,3.80
2023-05-12T23:10:29.272Z,3.60
2023-05-12T23:16:31.491Z,4.32
2023-05-12T23:22:34.229Z,3.78
2023-05-12T23:28:36.725Z,3.40
2023-05-12T23:34:40.802Z,4.15
2023-05-12T23:40:42.971Z,4.43
2023-05-12T23:46:45.207Z,3.53
2023-05-12T23:52:47.647Z,4.43
2023-05-12T23:58:49.940Z,4.50
